Sunday, October 21, 2018, 9:21 PM EDT
Back to Local

KGED, Georgetown Sussex Co Airport

Location: Georgetown, DE, United States Lat: 38.683
Local Time: 9:21 PM EDT ( 1:21 GMT) Lon: -75.367
Time Zone: US/Eastern Elev: 52 ft

Show me the last for .
Show Decoded

2018-10-21 20:54 METAR KGED 220054Z AUTO 00000KT 10SM CLR 06/01 A3020 RMK AO2 SLP226 T00610006 =
2018-10-21 19:54 METAR KGED 212354Z AUTO 00000KT 10SM CLR 08/M01 A3018 RMK AO2 SLP220 T00831006
                 10128 20083 53030 =
2018-10-21 18:54 METAR KGED 212254Z AUTO 32005KT 10SM CLR 09/M01 A3015 RMK AO2 SLP209 T00941011 =
2018-10-21 17:54 METAR KGED 212154Z AUTO VRB04KT 10SM CLR 11/M01 A3011 RMK AO2 SLP197 T01061006 =
2018-10-21 16:54 METAR KGED 212054Z AUTO 31009G20KT 10SM CLR 12/M01 A3009 RMK AO2 SLP190
                 T01171011 53010 =
2018-10-21 15:54 METAR KGED 211954Z AUTO 31009G19KT 280V350 10SM CLR 12/00 A3007 RMK AO2 PK WND
                 34027/1906 SLP184 T01220000 =
2018-10-21 14:54 METAR KGED 211854Z AUTO 33012G20KT 10SM FEW050 12/M01 A3006 RMK AO2 SLP180
                 T01221006 =
2018-10-21 13:54 METAR KGED 211754Z AUTO 31011G20KT 10SM BKN048 12/00 A3006 RMK AO2 PK WND
                 33027/1702 SLP179 T01170000 10128 20094 51010 =
2018-10-21 12:54 METAR KGED 211654Z AUTO 33012G24KT 10SM FEW049 12/M01 A3005 RMK AO2 PK WND
                 33029/1642 SLP175 T01171006 =
2018-10-21 11:54 METAR KGED 211554Z AUTO 32010G27KT 300V360 10SM BKN047 11/M01 A3005 RMK AO2 PK
                 WND 32027/1549 SLP175 T01111006 =
2018-10-21 10:54 METAR KGED 211454Z AUTO 35013G27KT 320V030 10SM FEW038 11/01 A3003 RMK AO2 PK
                 WND 01027/1452 SLP168 T01110011 53021 =
2018-10-21 09:54 METAR KGED 211354Z AUTO 34017G28KT 10SM SCT046 11/01 A3001 RMK AO2 PK WND
                 01028/1347 SLP161 T01060011 =
2018-10-21 09:31 METAR KGED 211331Z AUTO 34011G22KT 10SM SCT026 BKN034 10/03 A3000 RMK AO2
                 T01000028 =
2018-10-21 08:54 METAR KGED 211254Z AUTO 35014G25KT 10SM BKN028 BKN032 OVC044 10/04 A2997 RMK AO2
                 SLP149 T01000039 =
2018-10-21 08:50 METAR KGED 211250Z AUTO 33016G24KT 10SM BKN028 OVC044 10/04 A2997 RMK AO2 =
2018-10-21 07:54 METAR KGED 211154Z AUTO 31010G17KT 270V340 10SM BKN037 OVC060 11/03 A2991 RMK
                 AO2 SLP129 60000 70024 T01060033 10117 20106 53048 =
2018-10-21 06:54 METAR KGED 211054Z AUTO 29008G16KT 10SM FEW041 BKN055 11/03 A2986 RMK AO2 SLP110
                 T01060033 =
2018-10-21 05:54 METAR KGED 210954Z AUTO 28007G17KT 10SM CLR 11/03 A2982 RMK AO2 SLP095 T01110033
                 =
2018-10-21 04:54 METAR KGED 210854Z AUTO 30011G23KT 10SM SCT120 11/03 A2977 RMK AO2 PK WND
                 31027/0826 SLP080 60000 T01110033 53017 =
2018-10-21 03:54 METAR KGED 210754Z AUTO 26005KT 10SM BKN095 OVC120 11/07 A2974 RMK AO2 SLP070
                 T01110072 =
2018-10-21 02:54 METAR KGED 210654Z AUTO 25004KT 10SM FEW065 BKN090 OVC110 11/07 A2973 RMK AO2
                 RAB11E38 SLP065 P0000 T01110072 =
2018-10-21 01:54 METAR KGED 210554Z AUTO 00000KT 10SM SCT070 OVC085 11/08 A2972 RMK AO2 RAB31E52
                 SLP063 P0000 60024 T01110078 10150 20111 51013 =
2018-10-21 00:54 METAR KGED 210454Z AUTO VRB03KT 10SM BKN110 12/08 A2972 RMK AO2 SLP062 T01170078
                 401890117 =
2018-10-20 23:54 METAR KGED 210354Z AUTO 32010G19KT 10SM FEW027 SCT038 BKN090 13/09 A2972 RMK AO2
                 RAE06 SLP062 P0000 T01330094 =
2018-10-20 22:54 METAR KGED 210254Z AUTO 20004KT 10SM -RA FEW045 OVC060 13/12 A2968 RMK AO2
                 SLP051 P0022 60024 T01330122 58002 =
2018-10-20 22:12 METAR KGED 210212Z AUTO 30005KT 7SM -RA FEW025 OVC046 14/12 A2969 RMK AO2 LTG
                 DSNT N P0012 T01440122 =
2018-10-20 22:03 METAR KGED 210203Z AUTO VRB03KT 2SM RA BR FEW011 BKN048 OVC060 14/12 A2969 RMK
                 AO2 LTG DSNT N P0011 T01440122 =
2018-10-20 21:54 METAR KGED 210154Z AUTO 7SM -RA FEW011 BKN049 OVC070 15/13 A2969 RMK AO2 RAB48
                 PRESRR SLP054 P0002 T01500133 =

Support USWX by starting your Amazon purchase here.